createdAt,value
2022-08-26T00:09:54.484Z,3.05
2022-08-26T00:20:32.945Z,3.04
2022-08-26T00:31:11.265Z,3.04
2022-08-26T00:42:09.669Z,3.04
2022-08-26T00:52:48.297Z,3.03
2022-08-26T01:03:36.731Z,3.03
2022-08-26T01:14:15.580Z,3.02
2022-08-26T01:25:13.125Z,3.02
2022-08-26T01:36:10.126Z,3.03
2022-08-26T01:47:00.899Z,3.02
2022-08-26T01:57:56.268Z,3.02
2022-08-26T02:08:59.449Z,3.02
2022-08-26T02:19:40.437Z,3.02
2022-08-26T02:30:40.821Z,3.02
2022-08-26T02:41:45.148Z,3.02
2022-08-26T02:52:46.136Z,3.02
2022-08-26T03:03:28.703Z,3.00
2022-08-26T03:14:15.058Z,3.00
2022-08-26T03:25:02.764Z,3.00
2022-08-26T03:36:03.933Z,3.00
2022-08-26T03:46:51.965Z,2.99
2022-08-26T03:57:49.967Z,2.99
2022-08-26T04:08:51.590Z,2.99
2022-08-26T04:19:42.812Z,2.99
2022-08-26T04:30:38.194Z,2.99
2022-08-26T04:41:27.520Z,2.99
2022-08-26T04:52:23.618Z,2.99
2022-08-26T05:03:18.502Z,3.00
2022-08-26T05:14:18.943Z,3.01
2022-08-26T05:25:16.538Z,3.02
2022-08-26T05:36:17.025Z,3.02
2022-08-26T05:46:57.438Z,3.02
2022-08-26T05:57:54.535Z,3.03
2022-08-26T06:08:35.669Z,3.04
2022-08-26T06:19:38.586Z,3.05
2022-08-26T06:30:33.034Z,3.06
2022-08-26T06:41:33.969Z,3.07
2022-08-26T06:52:34.718Z,3.09
2022-08-26T07:03:31.612Z,3.10
2022-08-26T07:14:34.180Z,3.11
2022-08-26T07:25:20.142Z,3.13
2022-08-26T07:36:04.272Z,3.14
2022-08-26T07:47:00.776Z,3.15
2022-08-26T07:58:02.533Z,3.17
2022-08-26T08:08:45.660Z,3.18
2022-08-26T08:19:42.796Z,3.19
2022-08-26T08:30:40.185Z,3.21
2022-08-26T08:41:36.053Z,3.22
2022-08-26T08:52:31.941Z,3.24
2022-08-26T09:03:28.197Z,3.26
2022-08-26T09:14:06.596Z,3.27
2022-08-26T09:24:57.667Z,3.29
2022-08-26T09:35:41.224Z,3.29
2022-08-26T09:46:34.906Z,3.32
2022-08-26T09:57:31.927Z,3.34
2022-08-26T10:08:31.872Z,3.37
2022-08-26T10:19:33.203Z,3.32
2022-08-26T10:30:33.581Z,3.33
2022-08-26T10:41:33.986Z,3.32
2022-08-26T10:52:34.194Z,3.33
2022-08-26T11:03:34.941Z,3.32
2022-08-26T11:14:34.107Z,3.33
2022-08-26T11:25:38.048Z,3.34
2022-08-26T11:36:41.018Z,3.37
2022-08-26T11:47:42.303Z,3.37
2022-08-26T11:58:36.240Z,3.32
2022-08-26T12:09:36.422Z,3.33
2022-08-26T12:20:35.489Z,3.33
2022-08-26T12:31:34.874Z,3.33
2022-08-26T12:42:36.302Z,3.33
2022-08-26T12:53:36.611Z,3.33
2022-08-26T13:04:25.055Z,3.34
2022-08-26T13:15:21.629Z,3.34
2022-08-26T13:26:19.450Z,3.34
2022-08-26T13:37:18.539Z,3.33
2022-08-26T13:48:14.692Z,3.34
2022-08-26T13:59:00.673Z,3.34
2022-08-26T14:09:56.064Z,3.34
2022-08-26T14:20:31.529Z,3.34
2022-08-26T14:31:01.748Z,3.34
2022-08-26T14:41:33.433Z,3.34
2022-08-26T14:52:24.581Z,3.34
2022-08-26T15:02:59.082Z,3.35
2022-08-26T15:13:32.137Z,3.34
2022-08-26T15:24:08.764Z,3.34
2022-08-26T15:35:08.165Z,3.36
2022-08-26T15:46:03.832Z,3.35
2022-08-26T15:57:05.364Z,3.34
2022-08-26T16:07:51.195Z,3.37
2022-08-26T16:18:38.611Z,3.37
2022-08-26T16:29:30.422Z,3.36
2022-08-26T16:40:16.648Z,3.34
2022-08-26T16:51:05.118Z,3.33
2022-08-26T17:02:00.094Z,3.32
2022-08-26T17:12:51.645Z,3.30
2022-08-26T17:23:44.847Z,3.30
2022-08-26T17:34:31.777Z,3.29
2022-08-26T17:45:22.830Z,3.28
2022-08-26T17:56:11.055Z,3.28
2022-08-26T18:07:05.083Z,3.27
2022-08-26T18:17:39.419Z,3.25
2022-08-26T18:28:32.964Z,3.25
2022-08-26T18:39:22.115Z,3.25
2022-08-26T18:50:09.987Z,3.23
2022-08-26T19:01:03.563Z,3.23
2022-08-26T19:11:57.065Z,3.22
2022-08-26T19:22:54.640Z,3.22
2022-08-26T19:33:30.552Z,3.21
2022-08-26T19:44:26.594Z,3.21
2022-08-26T19:55:03.431Z,3.19
2022-08-26T20:05:59.279Z,3.19
2022-08-26T20:16:55.707Z,3.19
2022-08-26T20:27:52.306Z,3.18
2022-08-26T20:38:49.888Z,3.18
2022-08-26T20:49:30.001Z,3.17
2022-08-26T21:00:26.997Z,3.17
2022-08-26T21:11:17.127Z,3.17
2022-08-26T21:22:13.324Z,3.16
2022-08-26T21:33:07.895Z,3.15
2022-08-26T21:44:09.534Z,3.15
2022-08-26T21:55:04.368Z,3.15
2022-08-26T22:06:00.869Z,3.15
2022-08-26T22:16:50.664Z,3.14
2022-08-26T22:27:28.297Z,3.13
2022-08-26T22:38:04.598Z,3.11
2022-08-26T22:48:45.637Z,3.10
2022-08-26T22:59:33.980Z,3.10
2022-08-26T23:10:18.422Z,3.10
2022-08-26T23:20:55.854Z,3.09
2022-08-26T23:31:50.280Z,3.09
2022-08-26T23:42:44.516Z,3.09
2022-08-26T23:53:42.196Z,3.09
